createdAt,value
2019-03-23T00:00:32.586Z,8.40
2019-03-23T00:03:02.141Z,5.43
2019-03-23T00:05:31.577Z,7.20
2019-03-23T00:08:00.863Z,7.77
2019-03-23T00:10:30.140Z,7.57
2019-03-23T00:12:59.558Z,6.80
2019-03-23T00:15:28.831Z,5.97
2019-03-23T00:17:58.179Z,6.00
2019-03-23T00:20:27.695Z,5.97
2019-03-23T00:22:57.195Z,7.70
2019-03-23T00:25:26.441Z,6.63
2019-03-23T00:27:55.690Z,6.87
2019-03-23T00:30:25.011Z,6.33
2019-03-23T00:32:55.848Z,10.10
2019-03-23T00:35:25.174Z,7.30
2019-03-23T00:37:54.435Z,9.27
2019-03-23T00:40:23.686Z,6.07
2019-03-23T00:42:52.948Z,6.83
2019-03-23T00:45:22.206Z,6.62
2019-03-23T00:47:51.468Z,9.70
2019-03-23T00:50:20.718Z,6.87
2019-03-23T00:52:51.263Z,6.37
2019-03-23T00:55:20.530Z,7.15
2019-03-23T00:57:49.786Z,7.12
2019-03-23T01:00:19.766Z,5.80
2019-03-23T01:02:49.121Z,7.67
2019-03-23T01:05:18.488Z,6.10
2019-03-23T01:07:47.818Z,4.40
2019-03-23T01:10:17.270Z,6.03
2019-03-23T01:12:46.569Z,7.37
2019-03-23T01:15:16.323Z,5.27
2019-03-23T01:17:45.594Z,6.17
2019-03-23T01:20:15.341Z,6.23
2019-03-23T01:22:44.616Z,7.17
2019-03-23T01:25:13.961Z,7.90
2019-03-23T01:27:43.204Z,7.30
2019-03-23T01:30:13.068Z,6.40
2019-03-23T01:32:42.638Z,4.57
2019-03-23T01:35:12.065Z,7.13
2019-03-23T01:37:41.331Z,7.10
2019-03-23T01:40:11.106Z,10.80
2019-03-23T01:42:40.495Z,6.17
2019-03-23T01:45:10.650Z,7.25
2019-03-23T01:47:39.962Z,6.13
2019-03-23T01:50:09.909Z,6.97
2019-03-23T01:52:39.301Z,8.83
2019-03-23T01:55:09.105Z,6.55
2019-03-23T01:57:38.418Z,8.17
2019-03-23T02:00:08.138Z,8.67
2019-03-23T02:02:37.408Z,6.43
2019-03-23T02:05:07.412Z,6.17
2019-03-23T02:07:36.803Z,6.20
2019-03-23T02:10:06.593Z,6.43
2019-03-23T02:12:35.930Z,6.63
2019-03-23T02:15:05.757Z,6.20
2019-03-23T02:17:35.125Z,6.78
2019-03-23T02:20:05.447Z,5.43
2019-03-23T02:22:34.798Z,8.03
2019-03-23T02:25:05.683Z,7.37
2019-03-23T02:27:35.650Z,5.40
2019-03-23T02:30:06.506Z,7.23
2019-03-23T02:32:35.762Z,7.54
2019-03-23T02:35:05.934Z,6.97
2019-03-23T02:37:35.184Z,6.93
2019-03-23T02:40:05.844Z,8.97
2019-03-23T02:42:35.106Z,6.03
2019-03-23T02:45:04.863Z,11.27
2019-03-23T02:47:34.127Z,12.23
2019-03-23T02:50:03.599Z,7.40
2019-03-23T02:52:32.855Z,7.40
2019-03-23T02:55:02.101Z,6.08
2019-03-23T02:57:31.355Z,6.90
2019-03-23T03:00:00.615Z,7.73
2019-03-23T03:02:29.923Z,6.50
2019-03-23T03:04:59.674Z,7.93
2019-03-23T03:07:41.156Z,8.73
2019-03-23T03:10:00.854Z,8.75
2019-03-23T03:12:30.119Z,9.67
2019-03-23T03:14:59.375Z,9.80
2019-03-23T03:17:28.635Z,9.77
2019-03-23T03:19:57.921Z,8.07
2019-03-23T03:22:27.178Z,9.77
2019-03-23T03:24:56.432Z,7.30
2019-03-23T03:27:25.683Z,10.33
2019-03-23T03:29:54.919Z,8.57
2019-03-23T03:32:24.286Z,10.50
2019-03-23T03:34:53.537Z,12.43
2019-03-23T03:37:22.807Z,7.97
2019-03-23T03:39:52.190Z,10.57
2019-03-23T03:42:21.511Z,9.70
2019-03-23T03:44:50.763Z,9.93
2019-03-23T03:47:20.028Z,12.13
2019-03-23T03:49:49.328Z,9.67
2019-03-23T03:52:18.694Z,11.13
2019-03-23T03:54:47.952Z,10.20
2019-03-23T03:57:17.216Z,13.07
2019-03-23T03:59:46.676Z,11.63
2019-03-23T04:02:15.923Z,13.03
2019-03-23T04:04:45.192Z,14.07
2019-03-23T04:07:14.444Z,11.33
2019-03-23T04:09:43.708Z,13.37
2019-03-23T04:12:13.055Z,11.05
2019-03-23T04:14:42.298Z,11.77
2019-03-23T04:17:11.654Z,14.47
2019-03-23T04:19:40.919Z,12.97
2019-03-23T04:22:10.184Z,12.75
2019-03-23T04:24:39.441Z,11.17
2019-03-23T04:27:09.787Z,14.40
2019-03-23T04:29:39.052Z,11.87
2019-03-23T04:32:08.321Z,14.93
2019-03-23T04:34:37.570Z,12.40
2019-03-23T04:37:07.001Z,15.37
2019-03-23T04:39:36.258Z,11.60
2019-03-23T04:42:05.778Z,13.93
2019-03-23T04:44:35.030Z,13.17
2019-03-23T04:47:04.430Z,12.17
2019-03-23T04:49:33.696Z,9.07
2019-03-23T04:52:02.968Z,10.90
2019-03-23T04:54:32.209Z,11.00
2019-03-23T04:57:01.534Z,12.63
2019-03-23T04:59:30.784Z,12.13
2019-03-23T05:02:00.082Z,11.77
2019-03-23T05:04:29.416Z,13.80
2019-03-23T05:06:58.675Z,12.10
2019-03-23T05:09:27.934Z,12.27
2019-03-23T05:11:57.224Z,12.57
2019-03-23T05:14:26.462Z,10.80
2019-03-23T05:16:55.722Z,10.57
2019-03-23T05:19:24.988Z,14.70
2019-03-23T05:21:54.243Z,14.85
2019-03-23T05:24:23.584Z,12.10
2019-03-23T05:26:53.726Z,13.67
2019-03-23T05:29:22.997Z,14.87
2019-03-23T05:31:52.263Z,13.63
2019-03-23T05:34:21.581Z,14.20
2019-03-23T05:36:50.845Z,16.57
2019-03-23T05:39:20.078Z,13.40
2019-03-23T05:41:49.334Z,15.17
2019-03-23T05:44:18.617Z,14.23
2019-03-23T05:47:06.831Z,13.43
2019-03-23T05:49:36.115Z,16.37
2019-03-23T05:52:05.670Z,16.10
2019-03-23T05:54:34.931Z,16.73
2019-03-23T05:57:04.279Z,16.47
2019-03-23T05:59:33.530Z,15.90
2019-03-23T06:02:02.791Z,18.07
2019-03-23T06:04:32.046Z,16.20
2019-03-23T06:07:01.314Z,21.37
2019-03-23T06:09:30.686Z,19.27
2019-03-23T06:12:00.026Z,17.70
2019-03-23T06:14:29.301Z,15.63
2019-03-23T06:16:58.559Z,17.37
2019-03-23T06:19:27.819Z,17.40
2019-03-23T06:21:57.075Z,21.52
2019-03-23T06:24:26.342Z,18.40
2019-03-23T06:26:55.650Z,22.03
2019-03-23T06:29:25.202Z,18.20
2019-03-23T06:31:54.531Z,18.27
2019-03-23T06:34:23.871Z,20.03
2019-03-23T06:36:53.718Z,18.60
2019-03-23T06:39:23.061Z,18.30
2019-03-23T06:41:52.358Z,23.17
2019-03-23T06:44:21.641Z,20.03
2019-03-23T06:46:50.946Z,18.33
2019-03-23T06:49:20.221Z,19.70
2019-03-23T06:51:49.494Z,20.70
2019-03-23T06:54:18.771Z,22.40
2019-03-23T06:56:48.042Z,19.27
2019-03-23T06:59:17.384Z,21.90
2019-03-23T07:01:46.631Z,23.77
2019-03-23T07:04:15.927Z,18.77
2019-03-23T07:06:45.192Z,20.53
2019-03-23T07:09:16.482Z,24.17
2019-03-23T07:11:45.529Z,26.23
2019-03-23T07:14:14.847Z,24.35
2019-03-23T07:16:44.127Z,24.55
2019-03-23T07:19:13.451Z,26.30
2019-03-23T07:21:42.709Z,27.05
2019-03-23T07:24:11.984Z,29.13
2019-03-23T07:26:41.259Z,26.52
2019-03-23T07:29:10.565Z,27.80
2019-03-23T07:31:39.894Z,27.45
2019-03-23T07:34:09.155Z,27.97
2019-03-23T07:36:38.418Z,28.13
2019-03-23T07:39:08.445Z,26.10
2019-03-23T07:41:37.744Z,20.60
2019-03-23T07:44:07.034Z,23.33
2019-03-23T07:46:36.383Z,28.77
2019-03-23T07:49:05.844Z,30.17
2019-03-23T07:51:35.118Z,37.47
2019-03-23T07:54:05.090Z,25.92
2019-03-23T07:56:34.402Z,27.83
2019-03-23T07:59:03.749Z,37.93
2019-03-23T08:01:33.024Z,32.17
2019-03-23T08:04:02.855Z,34.43
2019-03-23T08:06:32.166Z,34.57
2019-03-23T08:09:01.431Z,36.13
2019-03-23T08:11:30.765Z,34.20
2019-03-23T08:14:00.051Z,34.50
2019-03-23T08:16:29.318Z,37.10
2019-03-23T08:18:58.574Z,40.60
2019-03-23T08:21:27.887Z,38.33
2019-03-23T08:23:57.170Z,42.47
2019-03-23T08:26:26.509Z,43.47
2019-03-23T08:28:55.771Z,41.43
2019-03-23T08:31:26.873Z,45.03
2019-03-23T08:33:56.133Z,45.07
2019-03-23T08:36:25.410Z,43.57
2019-03-23T08:38:54.700Z,44.03
2019-03-23T08:41:26.825Z,44.70
2019-03-23T08:43:56.298Z,47.47
2019-03-23T08:46:27.773Z,41.77
2019-03-23T08:48:57.048Z,45.00
2019-03-23T08:51:26.414Z,40.50
2019-03-23T08:53:55.781Z,42.48
2019-03-23T08:56:28.774Z,43.23
2019-03-23T08:58:58.349Z,41.87
2019-03-23T09:01:28.172Z,41.20
2019-03-23T09:04:01.312Z,41.63
2019-03-23T09:06:33.744Z,40.60
2019-03-23T09:09:07.423Z,41.70
2019-03-23T09:11:40.841Z,40.40
2019-03-23T09:14:13.006Z,43.70
2019-03-23T09:16:46.718Z,45.70
2019-03-23T09:19:35.557Z,43.47
2019-03-23T09:22:08.793Z,41.83
2019-03-23T09:24:39.964Z,46.27
2019-03-23T09:27:12.680Z,45.20
2019-03-23T09:29:44.638Z,44.00
2019-03-23T09:32:20.255Z,46.03
2019-03-23T09:35:15.426Z,47.37
2019-03-23T09:37:51.200Z,46.17
2019-03-23T09:40:25.471Z,45.30
2019-03-23T09:42:58.118Z,48.90
2019-03-23T09:45:30.271Z,47.13
2019-03-23T09:48:02.701Z,46.53
2019-03-23T09:50:33.345Z,47.07
2019-03-23T09:53:03.177Z,46.50
2019-03-23T09:55:33.490Z,45.80
2019-03-23T09:58:03.099Z,46.53
2019-03-23T10:00:34.480Z,44.97
2019-03-23T10:03:12.061Z,43.53
2019-03-23T10:05:45.975Z,44.00
2019-03-23T10:08:16.103Z,43.77
2019-03-23T10:10:55.590Z,45.93
2019-03-23T10:13:31.882Z,46.57
2019-03-23T10:16:02.400Z,49.43
2019-03-23T10:18:34.686Z,51.33
2019-03-23T10:21:11.040Z,51.23
2019-03-23T10:23:40.354Z,52.47
2019-03-23T10:26:09.932Z,52.80
2019-03-23T10:28:39.223Z,52.77
2019-03-23T10:31:11.830Z,49.93
2019-03-23T10:33:41.202Z,58.50
2019-03-23T10:36:12.190Z,53.83
2019-03-23T10:38:41.505Z,57.20
2019-03-23T10:41:10.826Z,60.43
2019-03-23T10:43:40.162Z,60.63
2019-03-23T10:46:09.928Z,64.53
2019-03-23T10:48:39.440Z,69.47
2019-03-23T10:51:08.958Z,63.60
2019-03-23T10:53:38.321Z,67.23
2019-03-23T10:56:07.582Z,70.10
2019-03-23T10:58:36.850Z,68.97
2019-03-23T11:01:06.186Z,67.30
2019-03-23T11:03:35.527Z,71.67
2019-03-23T11:06:04.779Z,70.67
2019-03-23T11:08:34.213Z,74.13
2019-03-23T11:11:03.582Z,80.43
2019-03-23T11:13:32.847Z,78.77
2019-03-23T11:16:02.513Z,81.47
2019-03-23T11:18:31.951Z,78.27
2019-03-23T11:21:01.706Z,70.60
2019-03-23T11:23:30.970Z,63.23
2019-03-23T11:26:00.239Z,76.97
2019-03-23T11:28:29.520Z,72.33
2019-03-23T11:30:59.741Z,66.42
2019-03-23T11:33:28.990Z,71.13
2019-03-23T11:35:58.345Z,74.10
2019-03-23T11:38:27.781Z,78.20
2019-03-23T11:40:57.906Z,71.90
2019-03-23T11:43:27.178Z,75.40
2019-03-23T11:45:56.446Z,68.87
2019-03-23T11:48:25.761Z,70.07
2019-03-23T11:50:55.033Z,72.33
2019-03-23T11:53:24.282Z,72.60
2019-03-23T11:55:53.545Z,69.07
2019-03-23T11:58:22.800Z,65.80
2019-03-23T12:00:52.202Z,72.40
2019-03-23T12:03:21.510Z,68.35
2019-03-23T12:05:50.918Z,73.07
2019-03-23T12:08:20.768Z,70.07
2019-03-23T12:10:50.034Z,68.97
2019-03-23T12:13:23.858Z,72.67
2019-03-23T12:15:56.722Z,70.83
2019-03-23T12:18:26.303Z,68.13
2019-03-23T12:20:55.638Z,66.53
2019-03-23T12:23:26.352Z,65.70
2019-03-23T12:25:55.614Z,67.93
2019-03-23T12:28:24.978Z,62.97
2019-03-23T12:31:08.037Z,64.73
2019-03-23T12:33:42.944Z,68.33
2019-03-23T12:36:16.150Z,64.30
2019-03-23T12:38:46.178Z,70.77
2019-03-23T12:41:23.035Z,61.20
2019-03-23T12:43:47.517Z,61.33
2019-03-23T12:46:23.203Z,65.57
2019-03-23T12:48:52.999Z,62.27
2019-03-23T12:51:26.350Z,62.27
2019-03-23T12:53:56.253Z,66.72
2019-03-23T12:56:25.861Z,64.43
2019-03-23T12:58:55.786Z,62.90
2019-03-23T13:01:26.388Z,65.53
2019-03-23T13:03:55.678Z,62.17
2019-03-23T13:06:24.981Z,68.10
2019-03-23T13:08:54.243Z,67.53
2019-03-23T13:11:34.502Z,66.62
2019-03-23T13:13:54.589Z,62.60
2019-03-23T13:16:23.859Z,64.27
2019-03-23T13:18:53.493Z,64.00
2019-03-23T13:21:22.780Z,62.73
2019-03-23T13:23:52.046Z,65.50
2019-03-23T13:26:21.500Z,64.43
2019-03-23T13:28:54.181Z,64.80
2019-03-23T13:31:23.539Z,62.63
2019-03-23T13:33:52.906Z,64.13
2019-03-23T13:36:22.157Z,58.47
2019-03-23T13:38:51.449Z,61.90
2019-03-23T13:41:20.718Z,61.73
2019-03-23T13:43:49.990Z,61.37
2019-03-23T13:46:20.693Z,56.93
2019-03-23T13:48:49.970Z,60.30
2019-03-23T13:51:19.290Z,62.73
2019-03-23T13:53:48.573Z,63.07
2019-03-23T13:56:18.393Z,63.20
2019-03-23T13:58:47.695Z,58.80
2019-03-23T14:01:16.961Z,60.10
2019-03-23T14:03:46.321Z,57.80
2019-03-23T14:06:15.616Z,57.05
2019-03-23T14:08:44.915Z,56.03
2019-03-23T14:11:14.194Z,58.25
2019-03-23T14:13:43.489Z,57.37
2019-03-23T14:16:12.792Z,60.58
2019-03-23T14:18:42.061Z,60.77
2019-03-23T14:21:11.326Z,55.60
2019-03-23T14:23:40.682Z,60.40
2019-03-23T14:26:09.931Z,61.63
2019-03-23T14:28:39.235Z,63.43
2019-03-23T14:31:08.492Z,65.83
2019-03-23T14:33:37.760Z,67.10
2019-03-23T14:36:07.032Z,73.33
2019-03-23T14:38:36.321Z,80.60
2019-03-23T14:41:05.570Z,76.83
2019-03-23T14:43:34.903Z,75.37
2019-03-23T14:46:04.221Z,77.63
2019-03-23T14:48:34.302Z,77.80
2019-03-23T14:51:03.649Z,81.83
2019-03-23T14:53:34.658Z,86.73
2019-03-23T14:56:04.100Z,96.60
2019-03-23T14:58:36.929Z,88.00
2019-03-23T15:01:06.709Z,91.37
2019-03-23T15:03:36.058Z,92.30
2019-03-23T15:06:05.669Z,91.67
2019-03-23T15:08:34.930Z,93.67
2019-03-23T15:11:05.430Z,91.08
2019-03-23T15:13:35.268Z,87.43
2019-03-23T15:16:04.690Z,88.82
2019-03-23T15:18:37.776Z,100.40
2019-03-23T15:21:06.886Z,94.30
2019-03-23T15:23:36.151Z,92.37
2019-03-23T15:26:06.728Z,92.53
2019-03-23T15:28:36.171Z,92.50
2019-03-23T15:31:05.751Z,93.47
2019-03-23T15:33:35.881Z,89.77
2019-03-23T15:36:06.279Z,92.20
2019-03-23T15:38:36.294Z,91.73
2019-03-23T15:41:05.924Z,96.40
2019-03-23T15:43:35.190Z,90.77
2019-03-23T15:46:04.615Z,95.83
2019-03-23T15:48:33.871Z,91.92
2019-03-23T15:51:03.147Z,95.70
2019-03-23T15:53:32.407Z,94.23
2019-03-23T15:56:02.359Z,90.43
2019-03-23T15:58:31.641Z,95.42
2019-03-23T16:01:00.914Z,100.83
2019-03-23T16:03:30.768Z,91.10
2019-03-23T16:06:00.071Z,97.53
2019-03-23T16:08:29.374Z,93.47
2019-03-23T16:10:58.712Z,95.43
2019-03-23T16:13:28.065Z,95.47
2019-03-23T16:15:57.330Z,92.27
2019-03-23T16:18:26.672Z,94.20
2019-03-23T16:20:55.954Z,93.95
2019-03-23T16:23:25.226Z,95.37
2019-03-23T16:25:54.491Z,90.40
2019-03-23T16:28:25.409Z,95.07
2019-03-23T16:30:54.726Z,89.30
2019-03-23T16:33:24.044Z,90.70
2019-03-23T16:35:53.296Z,96.03
2019-03-23T16:38:22.574Z,90.03
2019-03-23T16:40:51.850Z,86.53
2019-03-23T16:43:21.119Z,89.93
2019-03-23T16:45:50.382Z,89.70
2019-03-23T16:48:19.658Z,96.30
2019-03-23T16:50:48.940Z,90.03
2019-03-23T16:53:18.218Z,93.95
2019-03-23T16:55:47.488Z,91.23
2019-03-23T16:58:17.701Z,93.90
2019-03-23T17:00:47.036Z,95.93
2019-03-23T17:03:16.328Z,94.93
2019-03-23T17:05:45.661Z,89.47
2019-03-23T17:08:14.949Z,92.40
2019-03-23T17:10:44.282Z,93.75
2019-03-23T17:13:13.547Z,94.37
2019-03-23T17:15:42.812Z,91.72
2019-03-23T17:18:12.092Z,91.03
2019-03-23T17:20:41.454Z,99.03
2019-03-23T17:23:10.722Z,95.17
2019-03-23T17:25:39.993Z,99.67
2019-03-23T17:28:09.284Z,94.20
2019-03-23T17:30:38.534Z,98.43
2019-03-23T17:33:08.962Z,97.03
2019-03-23T17:35:39.536Z,98.07
2019-03-23T17:38:08.812Z,91.07
2019-03-23T17:40:38.095Z,91.57
2019-03-23T17:43:07.461Z,94.58
2019-03-23T17:45:36.826Z,89.33
2019-03-23T17:48:06.098Z,89.60
2019-03-23T17:50:35.491Z,89.73
2019-03-23T17:53:04.980Z,97.97
2019-03-23T17:55:34.637Z,94.60
2019-03-23T17:58:04.983Z,91.67
2019-03-23T18:00:34.356Z,89.90
2019-03-23T18:03:03.630Z,98.80
2019-03-23T18:05:32.938Z,93.33
2019-03-23T18:08:02.279Z,95.83
2019-03-23T18:10:31.598Z,92.60
2019-03-23T18:13:01.029Z,90.53
2019-03-23T18:15:30.375Z,92.78
2019-03-23T18:18:00.830Z,91.30
2019-03-23T18:20:30.393Z,88.22
2019-03-23T18:22:59.714Z,102.37
2019-03-23T18:25:29.258Z,84.10
2019-03-23T18:27:58.533Z,101.43
2019-03-23T18:30:42.222Z,93.37
2019-03-23T18:33:13.013Z,87.77
2019-03-23T18:35:42.954Z,88.90
2019-03-23T18:38:12.420Z,85.73
2019-03-23T18:40:42.085Z,85.90
2019-03-23T18:43:12.745Z,89.70
2019-03-23T18:45:42.268Z,89.57
2019-03-23T18:48:11.608Z,86.00
2019-03-23T18:50:45.071Z,90.03
2019-03-23T18:53:15.686Z,98.27
2019-03-23T18:55:46.403Z,86.43
2019-03-23T18:58:17.192Z,88.53
2019-03-23T19:00:46.634Z,90.13
2019-03-23T19:03:16.460Z,87.17
2019-03-23T19:05:54.027Z,87.87
2019-03-23T19:08:25.534Z,83.93
2019-03-23T19:10:55.147Z,82.77
2019-03-23T19:13:24.853Z,86.73
2019-03-23T19:15:54.492Z,82.50
2019-03-23T19:18:23.770Z,86.57
2019-03-23T19:20:53.042Z,83.90
2019-03-23T19:23:22.343Z,84.10
2019-03-23T19:25:53.370Z,83.40
2019-03-23T19:28:22.662Z,91.28
2019-03-23T19:30:52.105Z,89.27
2019-03-23T19:33:21.382Z,87.03
2019-03-23T19:35:50.658Z,88.67
2019-03-23T19:38:20.239Z,87.70
2019-03-23T19:40:49.530Z,86.03
2019-03-23T19:43:18.876Z,90.73
2019-03-23T19:45:48.330Z,84.70
2019-03-23T19:48:17.603Z,94.10
2019-03-23T19:50:46.886Z,86.28
2019-03-23T19:53:16.142Z,85.93
2019-03-23T19:55:45.425Z,93.27
2019-03-23T19:58:14.749Z,89.17
2019-03-23T20:00:44.014Z,87.37
2019-03-23T20:03:13.307Z,91.87
2019-03-23T20:05:42.719Z,98.20
2019-03-23T20:08:11.996Z,91.07
2019-03-23T20:10:41.438Z,101.47
2019-03-23T20:13:10.844Z,90.40
2019-03-23T20:15:40.205Z,95.17
2019-03-23T20:18:09.658Z,96.30
2019-03-23T20:20:39.028Z,92.47
2019-03-23T20:23:09.014Z,94.45
2019-03-23T20:25:39.769Z,92.93
2019-03-23T20:28:09.899Z,97.27
2019-03-23T20:30:39.579Z,90.03
2019-03-23T20:33:19.051Z,88.17
2019-03-23T20:35:40.664Z,94.23
2019-03-23T20:38:10.279Z,97.53
2019-03-23T20:43:15.398Z,117.23
2019-03-23T20:45:45.094Z,107.67
2019-03-23T20:48:15.807Z,99.17
2019-03-23T20:50:45.734Z,116.43
2019-03-23T20:53:17.062Z,96.77
2019-03-23T20:55:47.929Z,108.47
2019-03-23T20:58:17.594Z,91.60
2019-03-23T21:00:47.279Z,94.90
2019-03-23T21:03:17.115Z,90.40
2019-03-23T21:05:48.307Z,88.53
2019-03-23T21:08:18.129Z,88.70
2019-03-23T21:10:47.825Z,88.53
2019-03-23T21:13:17.601Z,89.27
2019-03-23T21:15:47.324Z,92.97
2019-03-23T21:18:17.003Z,97.47
2019-03-23T21:20:47.998Z,95.50
2019-03-23T21:23:17.703Z,92.57
2019-03-23T21:25:47.363Z,98.40
2019-03-23T21:28:17.107Z,103.12
2019-03-23T21:30:48.995Z,102.97
2019-03-23T21:33:18.755Z,101.60
2019-03-23T21:35:49.000Z,96.07
2019-03-23T21:38:18.703Z,93.73
2019-03-23T21:40:49.421Z,100.67
2019-03-23T21:43:19.109Z,100.00
2019-03-23T21:45:49.170Z,101.13
2019-03-23T21:48:19.187Z,98.07
2019-03-23T23:00:18.956Z,89.67
2019-03-23T23:02:48.837Z,81.63
2019-03-23T23:05:18.304Z,92.60
2019-03-23T23:07:48.216Z,88.03
2019-03-23T23:10:20.337Z,85.05
2019-03-23T23:12:50.389Z,79.13
2019-03-23T23:15:20.023Z,76.67
2019-03-23T23:17:49.322Z,77.13
2019-03-23T23:20:19.765Z,70.17
2019-03-23T23:22:50.178Z,66.30
2019-03-23T23:25:19.937Z,63.07
2019-03-23T23:27:54.583Z,58.10
2019-03-23T23:30:24.510Z,55.43
2019-03-23T23:32:55.011Z,51.30
2019-03-23T23:35:25.164Z,49.90
2019-03-23T23:37:55.776Z,51.13
2019-03-23T23:40:25.585Z,51.63
2019-03-23T23:42:55.527Z,53.90
2019-03-23T23:45:25.299Z,52.97
2019-03-23T23:47:54.923Z,56.43
2019-03-23T23:50:24.728Z,53.17
2019-03-23T23:52:54.353Z,58.43
2019-03-23T23:55:23.773Z,65.00
2019-03-23T23:57:53.060Z,58.63
